Time;durP1;ratioP1;P1;durP2;ratioP2;P2;SDS_P1;SDS_P2;PMS_P1;PMS_P2;Temp;Humidity;BMP_temperature;BMP_pressure;BME280_temperature;BME280_humidity;BME280_pressure;Samples;Min_cycle;Max_cycle;Signal;HPM_P1;HPM_P2
2021/01/01 00:02:03;;;;;;;0.70;0.70;;;3.50;99.90;;;;;;5048701;28;20236;-88
2021/01/01 00:04:28;;;;;;;2.23;0.73;;;3.50;99.90;;;;;;5057282;28;20563;-84
2021/01/01 00:06:54;;;;;;;0.63;0.63;;;3.30;99.90;;;;;;5053570;28;20716;-85
2021/01/01 00:09:20;;;;;;;2.30;1.10;;;3.10;99.90;;;;;;5053589;28;20183;-85
2021/01/01 00:11:49;;;;;;;0.47;0.30;;;3.20;99.90;;;;;;5041894;28;20286;-85
2021/01/01 00:14:15;;;;;;;0.53;0.53;;;3.30;99.90;;;;;;5057186;28;20214;-83
2021/01/01 00:16:41;;;;;;;0.83;0.77;;;3.30;99.90;;;;;;5045414;28;20261;-86
2021/01/01 00:19:07;;;;;;;0.73;0.73;;;3.40;99.90;;;;;;5051445;28;20190;-89
2021/01/01 00:21:33;;;;;;;0.73;0.70;;;3.50;99.90;;;;;;5064629;28;20615;-87
2021/01/01 00:23:59;;;;;;;0.20;0.20;;;3.50;99.90;;;;;;5044268;28;20182;-82
2021/01/01 00:26:27;;;;;;;0.30;0.30;;;3.60;99.90;;;;;;5051604;28;20186;-89
2021/01/01 00:28:52;;;;;;;1.07;0.67;;;3.60;99.90;;;;;;5047247;28;20190;-86
2021/01/01 00:31:27;;;;;;;1.13;0.47;;;3.50;99.90;;;;;;5051629;28;20191;-85
2021/01/01 00:33:56;;;;;;;0.93;0.50;;;3.60;99.90;;;;;;5050593;28;20190;-83
2021/01/01 00:36:22;;;;;;;1.03;0.93;;;3.60;99.90;;;;;;5068816;28;20287;-83
2021/01/01 00:38:51;;;;;;;0.10;0.10;;;3.60;99.90;;;;;;5069997;28;20174;-85
2021/01/01 00:41:23;;;;;;;0.40;0.40;;;3.60;99.90;;;;;;5063128;28;20178;-84
2021/01/01 00:43:49;;;;;;;0.77;0.77;;;3.70;99.90;;;;;;5069548;28;20244;-83
2021/01/01 00:46:14;;;;;;;2.73;2.47;;;3.70;99.90;;;;;;5072613;28;20829;-83
2021/01/01 00:48:40;;;;;;;1.00;1.00;;;3.60;99.90;;;;;;5059834;28;20670;-84
2021/01/01 00:51:05;;;;;;;1.03;0.93;;;3.60;99.90;;;;;;5060301;28;20178;-83
2021/01/01 00:53:31;;;;;;;0.40;0.40;;;3.60;99.90;;;;;;5058934;28;20218;-85
2021/01/01 00:55:56;;;;;;;0.60;0.60;;;3.70;99.90;;;;;;5062878;28;20211;-83
2021/01/01 00:58:22;;;;;;;1.23;1.20;;;3.50;99.90;;;;;;5073612;28;20667;-83
2021/01/01 01:00:47;;;;;;;1.03;1.03;;;3.30;99.90;;;;;;5063193;28;20204;-84
2021/01/01 01:03:13;;;;;;;1.70;0.97;;;3.10;99.90;;;;;;5057943;28;20202;-86
2021/01/01 01:05:39;;;;;;;1.70;0.60;;;2.90;99.90;;;;;;5059954;28;20259;-83
2021/01/01 01:08:04;;;;;;;0.87;0.63;;;2.90;99.90;;;;;;5068166;28;20188;-83
2021/01/01 01:10:30;;;;;;;0.33;0.33;;;2.80;99.90;;;;;;5063064;28;20179;-85
2021/01/01 01:12:55;;;;;;;1.43;0.83;;;2.80;99.90;;;;;;5064719;28;20218;-83
2021/01/01 01:15:21;;;;;;;0.60;0.60;;;2.80;99.90;;;;;;5060376;28;20223;-86
2021/01/01 01:17:46;;;;;;;1.47;0.87;;;2.70;99.90;;;;;;5069792;28;20182;-84
2021/01/01 01:20:12;;;;;;;0.63;0.63;;;2.60;99.90;;;;;;5058975;28;20194;-86
2021/01/01 01:22:38;;;;;;;0.93;0.60;;;2.60;99.90;;;;;;5059895;28;20198;-83
2021/01/01 01:25:04;;;;;;;1.07;0.77;;;2.60;99.90;;;;;;5062723;28;20177;-83
2021/01/01 01:27:30;;;;;;;0.97;0.40;;;2.70;99.90;;;;;;5059021;28;20678;-84
2021/01/01 01:29:55;;;;;;;0.67;0.67;;;3.00;99.90;;;;;;5058693;28;20182;-83
2021/01/01 01:32:21;;;;;;;1.00;0.67;;;3.10;99.90;;;;;;5059343;28;20276;-85
2021/01/01 01:34:47;;;;;;;0.73;0.73;;;3.30;99.90;;;;;;5051993;28;20550;-84
2021/01/01 01:37:12;;;;;;;0.90;0.70;;;3.40;99.90;;;;;;5057725;28;20213;-87
2021/01/01 01:39:38;;;;;;;1.03;1.03;;;3.50;99.90;;;;;;5054218;28;20187;-84
2021/01/01 01:42:03;;;;;;;0.43;0.43;;;3.30;99.90;;;;;;5061587;28;20198;-85
2021/01/01 01:44:29;;;;;;;1.37;1.07;;;3.10;99.90;;;;;;5059015;28;20182;-86
2021/01/01 01:46:55;;;;;;;1.30;0.73;;;2.90;99.90;;;;;;5066550;28;20183;-85
2021/01/01 01:49:21;;;;;;;1.70;1.37;;;2.80;99.90;;;;;;5056468;28;20189;-85
2021/01/01 01:51:48;;;;;;;0.77;0.77;;;2.90;99.90;;;;;;5062149;28;20207;-86
2021/01/01 01:54:18;;;;;;;1.60;1.03;;;3.00;99.90;;;;;;5056086;28;20183;-85
2021/01/01 01:56:45;;;;;;;3.00;1.30;;;3.10;99.90;;;;;;5058207;28;20210;-84
2021/01/01 02:02:33;;;;;;;0.70;0.70;;;3.10;99.90;;;;;;5061202;28;20768;-85
2021/01/01 02:04:58;;;;;;;1.10;1.00;;;3.00;99.90;;;;;;5064712;28;20375;-86
2021/01/01 02:07:24;;;;;;;1.13;1.07;;;3.10;99.90;;;;;;5066886;28;20676;-86
2021/01/01 02:09:50;;;;;;;1.53;1.47;;;3.10;99.90;;;;;;5053956;28;20190;-85
2021/01/01 02:12:17;;;;;;;1.13;0.63;;;3.10;99.90;;;;;;5057638;28;20221;-84
2021/01/01 02:14:43;;;;;;;0.50;0.50;;;3.30;99.90;;;;;;5073178;28;20180;-84
2021/01/01 02:17:09;;;;;;;1.27;1.17;;;3.50;99.90;;;;;;5056087;28;20191;-86
2021/01/01 02:19:35;;;;;;;4.00;0.93;;;3.70;99.90;;;;;;5052751;28;20197;-84
2021/01/01 02:22:01;;;;;;;1.73;0.83;;;3.70;99.90;;;;;;5067731;28;20251;-84
2021/01/01 02:24:27;;;;;;;1.50;0.60;;;3.80;99.90;;;;;;5070015;28;20185;-84
2021/01/01 02:26:53;;;;;;;0.10;0.10;;;3.80;99.90;;;;;;5066050;28;20744;-83
2021/01/01 02:29:19;;;;;;;0.30;0.30;;;3.80;99.90;;;;;;5052604;28;20190;-85
2021/01/01 02:31:45;;;;;;;0.67;0.60;;;3.80;99.90;;;;;;5052303;28;20256;-85
2021/01/01 02:34:10;;;;;;;0.80;0.77;;;3.90;99.90;;;;;;5052585;28;20230;-84
2021/01/01 02:36:36;;;;;;;0.40;0.40;;;3.90;99.90;;;;;;5053690;28;20206;-85
2021/01/01 02:39:02;;;;;;;0.50;0.50;;;4.00;99.90;;;;;;5068143;28;20182;-84
2021/01/01 02:41:27;;;;;;;0.50;0.50;;;4.10;99.90;;;;;;5056590;28;20175;-85
2021/01/01 02:43:53;;;;;;;1.50;1.13;;;4.10;99.90;;;;;;5063831;28;20271;-84
2021/01/01 02:46:20;;;;;;;0.57;0.57;;;4.10;99.90;;;;;;5059032;28;20880;-84
2021/01/01 02:48:45;;;;;;;0.37;0.20;;;4.00;99.90;;;;;;5065750;28;20642;-84
2021/01/01 02:51:11;;;;;;;0.70;0.40;;;3.90;99.90;;;;;;5061259;28;20237;-84
2021/01/01 02:53:36;;;;;;;0.27;0.27;;;4.00;99.90;;;;;;5051537;28;20551;-85
2021/01/01 02:56:02;;;;;;;1.33;1.00;;;4.10;99.90;;;;;;5057877;28;20201;-83
2021/01/01 02:58:28;;;;;;;1.03;0.57;;;4.20;99.90;;;;;;5056790;28;21905;-84
2021/01/01 03:00:53;;;;;;;0.50;0.50;;;4.20;99.90;;;;;;5048477;28;20180;-85
2021/01/01 03:03:19;;;;;;;0.80;0.80;;;4.20;99.90;;;;;;5053472;28;20235;-84
2021/01/01 03:05:46;;;;;;;0.53;0.53;;;4.20;99.90;;;;;;5053958;28;20567;-83
2021/01/01 03:08:12;;;;;;;1.10;0.50;;;4.30;99.90;;;;;;5054225;28;20176;-84
2021/01/01 03:10:37;;;;;;;0.50;0.50;;;4.10;99.90;;;;;;5054267;28;20189;-84
2021/01/01 03:13:03;;;;;;;1.93;0.90;;;4.00;99.90;;;;;;5063295;28;20221;-84
2021/01/01 03:15:29;;;;;;;2.17;0.57;;;3.90;99.90;;;;;;5051023;28;20207;-84
2021/01/01 03:17:55;;;;;;;0.10;0.10;;;4.00;99.90;;;;;;5051487;28;20288;-84
2021/01/01 03:20:20;;;;;;;1.47;0.63;;;4.00;99.90;;;;;;5051467;28;20183;-84
2021/01/01 03:22:46;;;;;;;1.10;1.10;;;4.00;99.90;;;;;;5054433;28;20211;-85
2021/01/01 03:25:12;;;;;;;1.27;0.80;;;4.10;99.90;;;;;;5054816;28;20646;-84
2021/01/01 03:27:38;;;;;;;0.67;0.47;;;4.10;99.90;;;;;;5061326;28;20225;-85
2021/01/01 03:30:09;;;;;;;0.73;0.53;;;4.20;99.90;;;;;;5066472;28;20176;-86
2021/01/01 03:32:34;;;;;;;0.93;0.63;;;4.30;99.90;;;;;;5071383;28;20547;-85
2021/01/01 03:35:00;;;;;;;1.90;1.80;;;4.30;99.90;;;;;;5052322;28;20193;-84
2021/01/01 03:37:26;;;;;;;0.20;0.20;;;4.40;99.90;;;;;;5063174;28;20173;-86
2021/01/01 03:39:54;;;;;;;0.60;0.60;;;4.30;99.90;;;;;;5053814;28;20248;-84
2021/01/01 03:42:19;;;;;;;1.27;0.77;;;4.30;99.90;;;;;;5061811;28;20207;-85
2021/01/01 03:44:45;;;;;;;0.53;0.50;;;4.30;99.90;;;;;;5054078;28;20186;-84
2021/01/01 03:47:10;;;;;;;0.90;0.63;;;4.30;99.90;;;;;;5050704;28;20229;-84
2021/01/01 03:49:36;;;;;;;0.37;0.37;;;4.20;99.90;;;;;;5052263;28;20195;-85
2021/01/01 03:52:01;;;;;;;0.53;0.53;;;4.20;99.90;;;;;;5067480;28;20202;-84
2021/01/01 03:54:27;;;;;;;2.67;0.73;;;4.20;99.90;;;;;;5059048;28;20233;-85
2021/01/01 03:56:53;;;;;;;0.97;0.93;;;4.20;99.90;;;;;;5060507;28;20216;-84
2021/01/01 03:59:18;;;;;;;1.10;0.90;;;4.30;99.90;;;;;;5065558;28;20196;-85
2021/01/01 04:01:44;;;;;;;0.77;0.53;;;4.30;99.90;;;;;;5062762;28;20273;-86
2021/01/01 04:04:10;;;;;;;0.63;0.63;;;4.30;99.90;;;;;;5050800;28;20206;-83
2021/01/01 04:06:35;;;;;;;0.43;0.37;;;4.30;99.90;;;;;;5058208;28;20186;-84
2021/01/01 04:09:01;;;;;;;2.30;1.33;;;4.40;99.90;;;;;;5041950;28;20176;-84
2021/01/01 04:11:27;;;;;;;0.33;0.33;;;4.40;99.90;;;;;;5061830;28;20187;-85
2021/01/01 04:13:52;;;;;;;0.60;0.60;;;4.40;99.90;;;;;;5057213;28;20285;-85
2021/01/01 04:16:18;;;;;;;0.87;0.63;;;4.40;99.90;;;;;;5062270;28;20210;-84
2021/01/01 04:18:43;;;;;;;0.77;0.40;;;4.50;99.90;;;;;;5062471;28;20194;-85
2021/01/01 04:21:09;;;;;;;0.20;0.20;;;4.40;99.90;;;;;;5054487;28;20180;-84
2021/01/01 04:23:35;;;;;;;0.43;0.40;;;4.30;99.90;;;;;;5068189;28;20203;-85
2021/01/01 04:26:03;;;;;;;1.40;0.83;;;4.30;99.90;;;;;;5064859;28;20213;-84
2021/01/01 04:28:28;;;;;;;0.60;0.60;;;4.40;99.90;;;;;;5058946;28;20186;-83
2021/01/01 04:30:54;;;;;;;1.03;0.47;;;4.50;99.90;;;;;;5052664;28;20556;-84
2021/01/01 04:33:19;;;;;;;1.60;0.47;;;4.50;99.90;;;;;;5059422;28;20238;-84
2021/01/01 04:35:45;;;;;;;0.70;0.70;;;4.50;99.90;;;;;;5064239;28;20211;-85
2021/01/01 04:38:10;;;;;;;0.20;0.20;;;4.30;99.90;;;;;;5056275;28;20195;-84
2021/01/01 04:40:36;;;;;;;0.33;0.33;;;4.10;99.90;;;;;;5054078;28;20183;-84
2021/01/01 04:43:02;;;;;;;0.20;0.20;;;4.10;99.90;;;;;;5072344;28;20207;-84
2021/01/01 04:45:28;;;;;;;0.20;0.20;;;4.00;99.90;;;;;;5062472;28;20317;-85
2021/01/01 04:47:54;;;;;;;0.83;0.70;;;4.10;99.90;;;;;;5072983;28;20183;-84
2021/01/01 04:50:20;;;;;;;0.60;0.60;;;4.10;99.90;;;;;;5054236;28;20395;-84
2021/01/01 04:52:49;;;;;;;1.30;0.97;;;4.10;99.90;;;;;;5054396;28;20214;-84
2021/01/01 04:55:16;;;;;;;1.63;0.90;;;4.20;99.90;;;;;;5055804;28;20282;-84
2021/01/01 04:57:41;;;;;;;0.77;0.77;;;4.30;99.90;;;;;;5069224;28;20180;-84
2021/01/01 05:00:08;;;;;;;0.60;0.60;;;4.20;99.90;;;;;;5039506;28;20176;-83
2021/01/01 05:02:33;;;;;;;2.33;0.47;;;4.20;99.90;;;;;;5070796;28;20212;-85
2021/01/01 05:04:59;;;;;;;1.13;1.03;;;4.10;99.90;;;;;;5058260;28;20188;-86
2021/01/01 05:07:26;;;;;;;0.50;0.30;;;4.00;99.90;;;;;;5059368;28;20237;-85
2021/01/01 05:09:52;;;;;;;0.77;0.57;;;3.90;99.90;;;;;;5059529;28;20184;-85
2021/01/01 05:12:17;;;;;;;0.57;0.40;;;3.60;99.90;;;;;;5058396;28;20225;-85
2021/01/01 05:14:43;;;;;;;0.53;0.53;;;3.70;99.90;;;;;;5054553;28;20190;-86
2021/01/01 05:17:09;;;;;;;0.50;0.23;;;3.80;99.90;;;;;;5058965;28;20206;-84
2021/01/01 05:19:42;;;;;;;1.40;0.90;;;3.80;99.90;;;;;;5054944;28;20670;-85
2021/01/01 05:22:10;;;;;;;0.20;0.20;;;3.80;99.90;;;;;;5059209;28;20230;-84
2021/01/01 05:24:42;;;;;;;0.43;0.43;;;3.80;99.90;;;;;;5063485;28;20230;-85
2021/01/01 05:27:17;;;;;;;0.90;0.67;;;4.00;99.90;;;;;;5058243;28;20198;-84
2021/01/01 05:29:54;;;;;;;0.20;0.20;;;4.10;99.90;;;;;;5063955;28;20170;-85
2021/01/01 05:32:28;;;;;;;0.87;0.73;;;4.20;99.90;;;;;;5053169;28;20251;-84
2021/01/01 05:34:57;;;;;;;0.40;0.40;;;4.30;99.90;;;;;;5062170;28;20175;-84
2021/01/01 05:37:32;;;;;;;4.30;1.10;;;4.40;99.90;;;;;;5065269;28;20258;-85
2021/01/01 05:40:10;;;;;;;0.70;0.70;;;4.30;99.90;;;;;;5058326;28;20239;-84
2021/01/01 05:42:37;;;;;;;0.60;0.60;;;4.10;99.90;;;;;;5056422;28;20250;-87
2021/01/01 05:45:16;;;;;;;0.13;0.13;;;3.90;99.90;;;;;;5055156;28;20182;-85
2021/01/01 05:48:01;;;;;;;0.40;0.40;;;4.00;99.90;;;;;;5067131;28;20200;-85
2021/01/01 05:50:26;;;;;;;2.43;0.93;;;3.90;99.90;;;;;;5062025;28;20167;-84
2021/01/01 05:53:11;;;;;;;4.27;0.80;;;3.90;99.90;;;;;;5064858;28;20257;-84
2021/01/01 05:55:37;;;;;;;0.97;0.87;;;4.10;99.90;;;;;;5061401;28;20217;-84
2021/01/01 05:58:02;;;;;;;0.70;0.70;;;4.10;99.90;;;;;;5059950;28;20554;-84
2021/01/01 06:00:31;;;;;;;1.40;0.80;;;4.30;99.90;;;;;;5059156;28;20546;-85
2021/01/01 06:02:58;;;;;;;0.83;0.77;;;4.30;99.90;;;;;;5056888;28;20570;-85
2021/01/01 06:05:27;;;;;;;0.67;0.57;;;4.30;99.90;;;;;;5053603;28;20183;-84
2021/01/01 06:07:55;;;;;;;0.37;0.37;;;4.30;99.90;;;;;;5061087;28;20179;-84
2021/01/01 06:10:22;;;;;;;0.20;0.20;;;4.30;99.90;;;;;;5063476;28;20464;-85
2021/01/01 06:12:51;;;;;;;0.37;0.37;;;4.30;99.90;;;;;;5062036;28;20314;-83
2021/01/01 06:15:22;;;;;;;0.20;0.20;;;4.10;99.90;;;;;;5053751;28;20202;-84
2021/01/01 06:17:52;;;;;;;0.73;0.73;;;4.10;99.90;;;;;;5072010;28;20175;-85
2021/01/01 06:20:21;;;;;;;0.70;0.60;;;4.30;99.90;;;;;;5061773;28;20222;-85
2021/01/01 06:23:08;;;;;;;1.60;0.97;;;4.30;99.90;;;;;;5062971;28;20211;-85
2021/01/01 06:25:34;;;;;;;0.97;0.97;;;4.30;99.90;;;;;;5067526;28;20184;-86
2021/01/01 06:28:00;;;;;;;0.10;0.10;;;4.30;99.90;;;;;;5040524;28;20659;-84
2021/01/01 06:30:27;;;;;;;0.33;0.33;;;4.40;99.90;;;;;;5041146;28;20234;-85
2021/01/01 06:32:53;;;;;;;0.10;0.10;;;4.40;99.90;;;;;;5052368;28;20200;-85
2021/01/01 06:35:20;;;;;;;1.20;0.50;;;4.50;99.90;;;;;;5055570;28;20286;-87
2021/01/01 06:37:53;;;;;;;0.83;0.83;;;4.60;99.90;;;;;;5066921;28;20223;-85
2021/01/01 06:40:21;;;;;;;0.13;0.13;;;4.60;99.90;;;;;;5064135;28;20207;-86
2021/01/01 06:42:51;;;;;;;0.37;0.37;;;4.70;99.90;;;;;;5065542;28;20691;-87
2021/01/01 06:45:41;;;;;;;1.80;0.53;;;4.60;99.90;;;;;;5049115;28;20215;-86
2021/01/01 06:48:18;;;;;;;0.50;0.50;;;4.60;99.90;;;;;;5065693;28;20214;-87
2021/01/01 06:50:48;;;;;;;1.17;0.30;;;4.60;99.90;;;;;;5053278;28;20652;-85
2021/01/01 06:53:15;;;;;;;1.10;1.03;;;4.50;99.90;;;;;;5045855;28;20203;-83
2021/01/01 06:55:46;;;;;;;1.70;0.57;;;4.60;99.90;;;;;;5057800;28;20235;-84
2021/01/01 06:58:12;;;;;;;0.30;0.30;;;4.60;99.90;;;;;;5051785;28;20189;-84
2021/01/01 07:00:47;;;;;;;0.40;0.40;;;4.60;99.90;;;;;;5054345;28;20196;-84
2021/01/01 07:03:31;;;;;;;0.80;0.80;;;4.60;99.90;;;;;;5061093;28;20202;-84
2021/01/01 07:05:59;;;;;;;1.00;1.00;;;4.60;99.90;;;;;;5063469;28;20215;-87
2021/01/01 07:08:43;;;;;;;1.40;0.80;;;4.70;99.90;;;;;;5051849;28;20182;-87
2021/01/01 07:11:24;;;;;;;0.60;0.60;;;4.60;99.90;;;;;;5046877;28;20554;-87
2021/01/01 07:13:51;;;;;;;0.40;0.40;;;4.60;99.90;;;;;;5059970;28;20187;-83
2021/01/01 07:16:25;;;;;;;1.37;0.53;;;4.60;99.90;;;;;;5071094;28;20209;-84
2021/01/01 07:18:53;;;;;;;1.87;0.83;;;4.60;99.90;;;;;;5049072;28;20293;-84
2021/01/01 07:21:19;;;;;;;1.40;0.63;;;4.60;99.90;;;;;;5060116;28;20275;-88
2021/01/01 07:23:46;;;;;;;1.70;0.90;;;4.60;99.90;;;;;;5042131;28;20210;-86
2021/01/01 07:26:14;;;;;;;1.87;0.50;;;4.60;99.90;;;;;;5065693;28;20239;-86
2021/01/01 07:28:41;;;;;;;1.03;0.93;;;4.60;99.90;;;;;;5060577;28;20196;-84
2021/01/01 07:31:07;;;;;;;0.43;0.43;;;4.60;99.90;;;;;;5043973;28;20176;-91
2021/01/01 07:33:34;;;;;;;1.43;1.33;;;4.60;99.90;;;;;;5050891;28;20327;-86
2021/01/01 07:36:02;;;;;;;0.30;0.30;;;4.50;99.90;;;;;;5052034;28;20701;-85
2021/01/01 07:38:30;;;;;;;2.17;0.67;;;4.60;99.90;;;;;;5043043;28;20188;-86
2021/01/01 07:40:58;;;;;;;1.50;0.30;;;4.60;99.90;;;;;;5051464;28;20271;-86
2021/01/01 07:43:43;;;;;;;0.40;0.40;;;4.60;99.90;;;;;;5048045;28;20231;-85
2021/01/01 07:46:10;;;;;;;0.23;0.23;;;4.60;99.90;;;;;;5044774;28;20188;-86
2021/01/01 07:48:39;;;;;;;0.17;0.17;;;4.60;99.90;;;;;;5050806;28;20186;-85
2021/01/01 07:51:09;;;;;;;0.63;0.60;;;4.60;99.90;;;;;;5051697;28;20261;-87
2021/01/01 07:53:35;;;;;;;0.40;0.40;;;4.40;99.90;;;;;;5051265;28;20276;-86
2021/01/01 07:56:21;;;;;;;0.43;0.43;;;4.40;99.90;;;;;;5054057;28;20241;-86
2021/01/01 07:58:56;;;;;;;0.20;0.20;;;4.50;99.90;;;;;;5052726;28;20214;-85
2021/01/01 08:01:30;;;;;;;0.20;0.20;;;4.50;99.90;;;;;;5050673;28;20207;-85
2021/01/01 08:03:57;;;;;;;0.70;0.70;;;4.50;99.90;;;;;;5056452;28;20703;-85
2021/01/01 08:06:23;;;;;;;0.50;0.47;;;4.40;99.90;;;;;;5055873;28;20191;-84
2021/01/01 08:08:49;;;;;;;0.47;0.47;;;4.50;99.90;;;;;;5054923;28;20686;-85
2021/01/01 08:11:15;;;;;;;0.67;0.67;;;4.50;99.90;;;;;;5058693;28;20180;-84
2021/01/01 08:13:47;;;;;;;0.43;0.40;;;4.60;99.90;;;;;;5059415;28;20276;-85
2021/01/01 08:16:15;;;;;;;0.97;0.50;;;4.60;99.90;;;;;;5061525;28;20235;-86
2021/01/01 08:18:42;;;;;;;0.73;0.50;;;4.60;99.90;;;;;;5052073;28;20256;-85
2021/01/01 08:21:09;;;;;;;0.53;0.50;;;4.70;99.90;;;;;;5059335;28;20261;-86
2021/01/01 08:23:56;;;;;;;0.67;0.43;;;4.80;99.90;;;;;;5055142;28;20215;-85
2021/01/01 08:26:22;;;;;;;0.60;0.60;;;4.80;99.90;;;;;;5049400;28;20210;-86
2021/01/01 08:28:50;;;;;;;0.40;0.40;;;4.80;99.90;;;;;;5041840;28;20193;-84
2021/01/01 08:31:20;;;;;;;0.83;0.50;;;4.90;99.90;;;;;;5050189;28;20647;-88
2021/01/01 08:33:50;;;;;;;0.40;0.40;;;5.00;99.90;;;;;;5058178;28;20219;-85
2021/01/01 08:36:16;;;;;;;0.77;0.63;;;5.00;99.90;;;;;;5065625;28;20210;-85
2021/01/01 08:38:43;;;;;;;2.60;0.60;;;5.00;99.90;;;;;;5050311;28;20189;-85
2021/01/01 08:41:18;;;;;;;0.10;0.10;;;5.10;99.90;;;;;;5051555;28;20176;-85
2021/01/01 08:43:44;;;;;;;0.33;0.33;;;5.10;99.90;;;;;;5033092;28;20187;-88
2021/01/01 08:46:17;;;;;;;0.40;0.40;;;5.00;99.90;;;;;;5060619;28;20189;-85
2021/01/01 08:48:45;;;;;;;0.60;0.60;;;5.10;99.90;;;;;;5031863;28;20194;-84
2021/01/01 08:51:33;;;;;;;1.03;0.70;;;5.00;99.90;;;;;;5042719;28;20179;-84
2021/01/01 08:53:58;;;;;;;0.43;0.30;;;5.00;99.90;;;;;;5053230;28;20184;-85
2021/01/01 08:56:24;;;;;;;0.73;0.30;;;5.00;99.90;;;;;;5051692;28;20210;-84
2021/01/01 08:59:07;;;;;;;1.33;0.23;;;4.90;99.90;;;;;;5037391;28;20199;-84
2021/01/01 09:01:32;;;;;;;0.63;0.63;;;5.00;99.90;;;;;;5047973;28;20305;-84
2021/01/01 09:04:01;;;;;;;0.30;0.30;;;4.90;99.90;;;;;;5050922;28;20221;-87
2021/01/01 09:06:27;;;;;;;0.30;0.30;;;4.90;99.90;;;;;;5054781;28;20186;-84
2021/01/01 09:09:06;;;;;;;0.10;0.10;;;5.00;99.90;;;;;;5056246;28;20229;-85
2021/01/01 09:11:32;;;;;;;0.20;0.20;;;5.10;99.90;;;;;;5055783;28;20254;-86
2021/01/01 09:14:03;;;;;;;0.30;0.30;;;5.10;99.90;;;;;;5059161;28;20207;-84
2021/01/01 09:16:50;;;;;;;0.13;0.13;;;5.20;99.90;;;;;;5052075;28;20243;-86
2021/01/01 09:19:16;;;;;;;0.67;0.57;;;5.10;99.90;;;;;;5046486;28;20182;-87
2021/01/01 09:21:41;;;;;;;1.67;0.60;;;5.20;99.90;;;;;;5052482;28;20203;-87
2021/01/01 09:24:07;;;;;;;0.23;0.23;;;4.90;99.90;;;;;;5057616;28;20186;-86
2021/01/01 09:26:34;;;;;;;0.57;0.57;;;5.10;99.90;;;;;;5058864;28;20216;-87
2021/01/01 09:29:01;;;;;;;0.10;0.10;;;5.20;99.90;;;;;;5060228;28;20193;-86
2021/01/01 09:31:28;;;;;;;0.10;0.10;;;5.20;99.90;;;;;;5053704;28;20210;-87
2021/01/01 09:34:03;;;;;;;0.97;0.53;;;5.10;99.90;;;;;;5051714;28;20187;-85
2021/01/01 09:36:39;;;;;;;0.13;0.13;;;5.20;99.90;;;;;;5058397;28;20288;-87
2021/01/01 09:39:06;;;;;;;0.83;0.67;;;5.30;99.90;;;;;;5064843;28;20236;-87
2021/01/01 09:41:32;;;;;;;0.40;0.40;;;5.30;99.90;;;;;;5060342;28;20182;-88
2021/01/01 09:43:58;;;;;;;0.53;0.30;;;5.30;99.90;;;;;;5064621;28;20670;-87
2021/01/01 09:46:24;;;;;;;0.30;0.30;;;5.40;99.90;;;;;;5058241;28;20611;-86
2021/01/01 09:48:49;;;;;;;0.20;0.20;;;5.30;99.90;;;;;;5064513;28;20212;-86
2021/01/01 09:51:15;;;;;;;0.10;0.10;;;5.10;99.90;;;;;;5052132;28;20190;-92
2021/01/01 09:53:41;;;;;;;0.13;0.13;;;4.80;99.90;;;;;;5046328;28;20221;-87
2021/01/01 09:56:06;;;;;;;0.30;0.30;;;5.00;99.90;;;;;;5067787;28;20918;-87
2021/01/01 09:58:32;;;;;;;0.60;0.60;;;5.10;99.90;;;;;;5054920;28;20177;-86
2021/01/01 10:00:58;;;;;;;0.23;0.23;;;5.20;99.90;;;;;;5053494;28;20192;-86
2021/01/01 10:03:23;;;;;;;0.97;0.60;;;5.20;99.90;;;;;;5053485;28;20214;-87
2021/01/01 10:05:49;;;;;;;1.37;1.13;;;5.10;99.90;;;;;;5053135;28;20547;-87
2021/01/01 10:08:17;;;;;;;0.83;0.50;;;5.30;99.90;;;;;;5062330;28;20672;-87
2021/01/01 10:11:02;;;;;;;1.53;0.87;;;5.20;99.90;;;;;;5053103;28;20208;-87
2021/01/01 10:13:28;;;;;;;0.30;0.30;;;5.30;99.90;;;;;;5051683;28;20616;-87
2021/01/01 10:15:53;;;;;;;0.30;0.20;;;5.40;99.90;;;;;;5060763;28;20205;-85
2021/01/01 10:18:19;;;;;;;0.17;0.17;;;5.40;99.90;;;;;;5050303;28;20229;-88
2021/01/01 10:21:08;;;;;;;0.50;0.50;;;5.40;99.90;;;;;;5069866;28;20179;-87
2021/01/01 10:23:34;;;;;;;1.03;0.70;;;5.40;99.90;;;;;;5050160;28;20699;-86
2021/01/01 10:26:14;;;;;;;1.03;0.93;;;5.30;99.90;;;;;;5040240;28;20677;-87
2021/01/01 10:28:42;;;;;;;0.77;0.50;;;5.30;99.90;;;;;;5052425;28;20234;-86
2021/01/01 10:31:08;;;;;;;0.30;0.30;;;5.30;99.90;;;;;;5043734;28;20185;-86
2021/01/01 10:33:33;;;;;;;0.13;0.13;;;5.30;99.90;;;;;;5059761;28;20741;-86
2021/01/01 10:35:59;;;;;;;0.47;0.47;;;5.20;99.90;;;;;;5057778;28;20203;-89
2021/01/01 10:38:24;;;;;;;0.47;0.40;;;5.30;99.90;;;;;;5063302;28;20167;-86
2021/01/01 10:40:50;;;;;;;0.20;0.20;;;5.30;99.90;;;;;;5051352;28;20181;-86
2021/01/01 10:43:16;;;;;;;0.20;0.20;;;5.40;99.90;;;;;;5042863;28;20208;-87
2021/01/01 10:45:41;;;;;;;0.30;0.30;;;5.40;99.90;;;;;;5046727;28;20228;-87
2021/01/01 10:48:07;;;;;;;0.30;0.20;;;5.40;99.90;;;;;;5054259;28;20613;-88
2021/01/01 10:50:32;;;;;;;1.33;0.50;;;5.50;99.90;;;;;;5059977;28;20211;-86
2021/01/01 10:52:58;;;;;;;0.40;0.30;;;5.60;99.90;;;;;;5047212;28;20216;-87
2021/01/01 10:55:23;;;;;;;0.77;0.27;;;5.60;99.90;;;;;;5042508;28;20227;-87
2021/01/01 10:57:49;;;;;;;0.40;0.40;;;5.50;99.90;;;;;;5059948;28;20182;-86
2021/01/01 11:00:15;;;;;;;0.97;0.60;;;5.40;99.90;;;;;;5043523;28;20220;-87
2021/01/01 11:02:40;;;;;;;0.20;0.20;;;5.50;99.90;;;;;;5064678;28;20204;-86
2021/01/01 11:05:07;;;;;;;0.67;0.63;;;5.50;99.90;;;;;;5065635;28;20667;-86
2021/01/01 11:07:32;;;;;;;0.57;0.40;;;5.50;99.90;;;;;;5056226;28;20186;-86
2021/01/01 11:09:58;;;;;;;0.30;0.30;;;5.50;99.90;;;;;;5067910;28;20249;-86
2021/01/01 11:12:23;;;;;;;0.30;0.30;;;5.50;99.90;;;;;;5054567;28;20294;-87
2021/01/01 12:24:47;;;;;;;0.30;0.30;;;4.80;99.90;;;;;;5046879;28;20195;-87
2021/01/01 12:27:19;;;;;;;1.03;0.50;;;4.90;99.90;;;;;;5041532;28;20181;-86
2021/01/01 12:29:46;;;;;;;0.60;0.60;;;5.00;99.90;;;;;;5055594;28;20207;-84
2021/01/01 12:32:16;;;;;;;0.23;0.23;;;5.10;99.90;;;;;;5057666;28;20302;-84
2021/01/01 12:34:42;;;;;;;0.10;0.10;;;4.80;99.90;;;;;;5054687;28;20192;-83
2021/01/01 12:37:09;;;;;;;0.83;0.77;;;5.10;99.90;;;;;;5058070;28;20205;-86
2021/01/01 12:39:34;;;;;;;0.53;0.43;;;5.30;99.90;;;;;;5041749;28;20180;-84
2021/01/01 12:42:02;;;;;;;0.10;0.10;;;5.50;99.90;;;;;;5054657;28;20200;-84
2021/01/01 12:44:27;;;;;;;2.70;1.07;;;5.50;99.90;;;;;;5052707;28;20184;-85
2021/01/01 12:46:53;;;;;;;1.10;1.00;;;5.50;99.90;;;;;;5054190;28;20188;-86
2021/01/01 12:49:19;;;;;;;0.20;0.20;;;5.40;99.90;;;;;;5066303;28;20679;-84
2021/01/01 12:51:45;;;;;;;0.30;0.30;;;5.50;99.90;;;;;;5061052;28;20650;-84
2021/01/01 12:54:11;;;;;;;0.30;0.30;;;5.50;99.90;;;;;;5050695;28;20213;-84
2021/01/01 12:56:37;;;;;;;0.70;0.70;;;5.40;99.90;;;;;;5071842;28;20202;-84
2021/01/01 12:59:03;;;;;;;0.87;0.40;;;5.40;99.90;;;;;;5065424;28;20208;-84
2021/01/01 13:01:31;;;;;;;0.30;0.30;;;5.40;99.90;;;;;;5072128;28;20236;-88
2021/01/01 13:03:57;;;;;;;0.30;0.30;;;5.40;99.90;;;;;;5093874;28;20176;-85
2021/01/01 13:06:22;;;;;;;1.30;0.77;;;5.50;99.90;;;;;;5073789;28;20216;-86
2021/01/01 13:08:48;;;;;;;0.90;0.87;;;5.50;99.90;;;;;;5076789;28;20174;-87
2021/01/01 13:11:13;;;;;;;1.00;0.90;;;5.50;99.90;;;;;;5076739;28;20180;-92
2021/01/01 13:13:39;;;;;;;3.10;1.23;;;5.40;99.90;;;;;;5073648;28;20272;-90
2021/01/01 13:16:05;;;;;;;0.97;0.50;;;5.50;99.90;;;;;;5085111;28;20215;-89
2021/01/01 13:18:31;;;;;;;4.93;1.70;;;5.40;99.90;;;;;;5080942;28;20200;-86
2021/01/01 13:21:07;;;;;;;1.70;1.10;;;5.30;99.90;;;;;;5078216;28;20188;-91
2021/01/01 13:23:38;;;;;;;3.40;1.87;;;5.20;99.90;;;;;;5071528;28;20234;-87
2021/01/01 13:26:05;;;;;;;1.73;1.47;;;4.90;99.90;;;;;;5084005;28;20181;-91
2021/01/01 13:28:31;;;;;;;0.77;0.77;;;5.10;99.90;;;;;;5072340;28;20220;-92
2021/01/01 13:30:56;;;;;;;0.40;0.40;;;4.90;99.90;;;;;;5067041;28;20166;-90
2021/01/01 13:33:22;;;;;;;0.70;0.70;;;4.50;99.90;;;;;;5065534;28;20303;-90
2021/01/01 13:35:51;;;;;;;0.50;0.50;;;4.50;99.90;;;;;;5072711;28;20221;-90
2021/01/01 13:38:18;;;;;;;0.77;0.77;;;4.50;99.90;;;;;;5075094;28;20164;-88
2021/01/01 13:40:45;;;;;;;1.77;1.13;;;4.50;99.90;;;;;;5067740;28;20187;-85
2021/01/01 13:43:10;;;;;;;0.63;0.63;;;4.20;99.90;;;;;;5064548;28;20239;-87
2021/01/01 13:45:41;;;;;;;0.37;0.37;;;4.20;99.90;;;;;;5069019;28;20702;-87
2021/01/01 13:48:07;;;;;;;0.83;0.67;;;4.20;99.90;;;;;;5057784;28;20188;-85
2021/01/01 13:50:33;;;;;;;0.53;0.53;;;4.20;99.90;;;;;;5046206;28;20223;-86
2021/01/01 13:52:59;;;;;;;0.63;0.53;;;4.40;99.90;;;;;;5066883;28;20212;-84
2021/01/01 13:55:24;;;;;;;0.30;0.30;;;4.30;99.90;;;;;;5053059;28;20234;-84
2021/01/01 13:57:51;;;;;;;0.37;0.37;;;4.20;99.90;;;;;;5072929;28;20211;-86
2021/01/01 14:00:17;;;;;;;1.30;0.30;;;4.30;99.90;;;;;;5058600;28;20181;-84
2021/01/01 14:02:42;;;;;;;0.60;0.60;;;4.10;99.90;;;;;;5059038;28;20257;-84
2021/01/01 14:05:09;;;;;;;0.60;0.60;;;4.00;99.90;;;;;;5060552;28;20221;-85
2021/01/01 14:07:34;;;;;;;1.43;0.37;;;4.00;99.90;;;;;;5054962;28;20222;-87
2021/01/01 14:10:00;;;;;;;0.50;0.50;;;4.10;99.90;;;;;;5060039;28;20198;-89
2021/01/01 14:12:25;;;;;;;0.83;0.43;;;4.20;99.90;;;;;;5060954;28;20843;-84
2021/01/01 14:14:51;;;;;;;0.20;0.20;;;4.40;99.90;;;;;;5046451;28;20670;-85